createdAt,value
2019-04-05T00:01:14.136Z,11.83
2019-04-05T00:03:44.776Z,13.20
2019-04-05T00:06:15.238Z,13.15
2019-04-05T00:08:46.816Z,13.10
2019-04-05T00:11:17.508Z,13.70
2019-04-05T00:13:47.811Z,12.63
2019-04-05T00:16:18.172Z,13.55
2019-04-05T00:18:48.521Z,13.80
2019-04-05T00:21:19.314Z,14.68
2019-04-05T00:23:49.704Z,14.87
2019-04-05T00:26:20.161Z,13.98
2019-04-05T00:28:51.747Z,14.28
2019-04-05T00:31:22.780Z,15.08
2019-04-05T00:33:53.071Z,15.28
2019-04-05T00:36:23.809Z,16.48
2019-04-05T00:38:54.219Z,16.10
2019-04-05T00:41:24.718Z,15.75
2019-04-05T00:43:55.750Z,16.80
2019-04-05T00:46:26.323Z,16.93
2019-04-05T00:48:56.607Z,16.35
2019-04-05T00:51:26.931Z,15.58
2019-04-05T00:53:57.450Z,15.88
2019-04-05T00:56:28.042Z,16.20
2019-04-05T00:58:58.348Z,15.43
2019-04-05T01:01:28.852Z,16.75
2019-04-05T01:03:59.147Z,16.85
2019-04-05T01:06:29.750Z,16.93
2019-04-05T01:08:59.988Z,17.37
2019-04-05T01:11:30.693Z,16.10
2019-04-05T01:14:01.105Z,17.55
2019-04-05T01:16:31.811Z,16.55
2019-04-05T01:19:04.085Z,16.80
2019-04-05T01:21:40.402Z,16.87
2019-04-05T01:24:11.752Z,17.92
2019-04-05T01:26:44.324Z,18.10
2019-04-05T01:29:14.956Z,17.45
2019-04-05T01:31:45.501Z,17.70
2019-04-05T01:34:15.779Z,17.90
2019-04-05T01:36:46.482Z,17.23
2019-04-05T01:39:16.919Z,17.87
2019-04-05T01:41:47.703Z,18.05
2019-04-05T01:44:18.430Z,17.92
2019-04-05T01:46:48.730Z,19.15
2019-04-05T01:49:19.060Z,18.75
2019-04-05T01:51:49.957Z,19.32
2019-04-05T01:54:20.500Z,18.20
2019-04-05T01:56:50.852Z,18.23
2019-04-05T01:59:21.147Z,19.35
2019-04-05T02:01:51.625Z,19.05
2019-04-05T02:04:22.007Z,20.17
2019-04-05T02:06:52.475Z,19.00
2019-04-05T02:09:22.883Z,20.43
2019-04-05T02:11:53.201Z,19.60
2019-04-05T02:14:23.863Z,19.62
2019-04-05T02:16:54.094Z,20.50
2019-04-05T02:19:24.322Z,18.70
2019-04-05T02:21:56.056Z,20.15
2019-04-05T02:24:26.284Z,20.72
2019-04-05T02:26:56.514Z,20.17
2019-04-05T02:29:26.777Z,21.27
2019-04-05T02:31:57.104Z,20.77
2019-04-05T02:34:27.388Z,21.55
2019-04-05T02:36:57.719Z,21.45
2019-04-05T02:39:27.940Z,21.25
2019-04-05T02:41:58.655Z,20.90
2019-04-05T02:44:30.840Z,20.27
2019-04-05T02:47:01.481Z,20.80
2019-04-05T02:49:32.886Z,21.70
2019-04-05T02:52:04.846Z,20.85
2019-04-05T02:54:35.690Z,20.97
2019-04-05T02:57:06.507Z,20.80
2019-04-05T02:59:37.228Z,18.95
2019-04-05T03:02:10.671Z,19.80
2019-04-05T03:04:41.519Z,19.52
2019-04-05T03:07:13.318Z,19.02
2019-04-05T03:09:44.847Z,19.70
2019-04-05T03:12:18.915Z,18.25
2019-04-05T03:14:48.728Z,19.35
2019-04-05T03:17:20.012Z,20.15
2019-04-05T03:19:52.304Z,20.68
2019-04-05T03:22:24.516Z,19.82
2019-04-05T03:24:55.288Z,18.73
2019-04-05T03:27:29.693Z,18.57
2019-04-05T03:30:00.319Z,19.02
2019-04-05T03:32:30.607Z,18.48
2019-04-05T03:35:00.860Z,18.67
2019-04-05T03:37:31.486Z,17.82
2019-04-05T03:40:01.860Z,18.23
2019-04-05T03:42:32.653Z,18.02
2019-04-05T03:45:03.034Z,18.00
2019-04-05T03:47:54.828Z,17.50
2019-04-05T03:50:26.631Z,16.97
2019-04-05T03:52:57.643Z,16.90
2019-04-05T03:55:28.008Z,18.40
2019-04-05T03:57:59.104Z,18.55
2019-04-05T04:00:29.719Z,18.55
2019-04-05T04:03:00.296Z,17.62
2019-04-05T04:05:30.637Z,17.95
2019-04-05T04:08:01.047Z,18.65
2019-04-05T04:10:31.704Z,18.67
2019-04-05T04:13:02.214Z,18.15
2019-04-05T04:15:33.220Z,20.05
2019-04-05T04:18:05.102Z,19.60
2019-04-05T04:20:39.838Z,20.43
2019-04-05T04:23:11.848Z,20.43
2019-04-05T04:25:42.897Z,19.62
2019-04-05T04:28:15.239Z,20.05
2019-04-05T04:30:46.518Z,19.57
2019-04-05T04:33:18.285Z,19.02
2019-04-05T04:35:49.943Z,20.08
2019-04-05T04:38:20.515Z,20.95
2019-04-05T04:40:52.618Z,20.15
2019-04-05T04:43:23.731Z,20.90
2019-04-05T04:45:55.073Z,21.50
2019-04-05T04:48:25.595Z,20.40
2019-04-05T04:50:56.344Z,20.50
2019-04-05T04:53:27.518Z,20.65
2019-04-05T04:55:57.896Z,20.82
2019-04-05T04:58:28.274Z,21.25
2019-04-05T05:00:58.826Z,21.02
2019-04-05T05:03:29.202Z,19.92
2019-04-05T05:05:59.545Z,19.67
2019-04-05T05:08:30.103Z,21.33
2019-04-05T05:11:00.753Z,21.25
2019-04-05T05:13:31.318Z,19.98
2019-04-05T05:16:02.214Z,20.37
2019-04-05T05:18:32.707Z,21.05
2019-04-05T05:21:03.058Z,19.35
2019-04-05T05:23:35.498Z,19.77
2019-04-05T05:26:05.842Z,20.32
2019-04-05T05:28:36.311Z,19.60
2019-04-05T05:31:07.114Z,21.00
2019-04-05T05:33:38.866Z,20.23
2019-04-05T05:36:10.633Z,20.43
2019-04-05T05:38:41.579Z,19.67
2019-04-05T05:41:11.772Z,19.98
2019-04-05T05:43:42.171Z,19.82
2019-04-05T05:46:13.570Z,20.35
2019-04-05T05:48:44.714Z,19.27
2019-04-05T05:51:15.493Z,20.05
2019-04-05T05:53:46.017Z,19.87
2019-04-05T05:56:16.211Z,18.37
2019-04-05T05:58:46.947Z,20.60
2019-04-05T06:01:17.290Z,18.98
2019-04-05T06:03:47.773Z,19.70
2019-04-05T06:06:18.087Z,19.57
2019-04-05T06:08:53.208Z,18.75
2019-04-05T06:11:23.551Z,18.70
2019-04-05T06:13:53.977Z,20.17
2019-04-05T06:16:24.316Z,18.70
2019-04-05T06:18:54.757Z,19.50
2019-04-05T06:21:25.673Z,18.45
2019-04-05T06:23:56.579Z,19.40
2019-04-05T06:26:26.980Z,18.07
2019-04-05T06:28:57.377Z,18.65
2019-04-05T06:31:27.613Z,17.80
2019-04-05T06:33:57.913Z,17.60
2019-04-05T06:36:28.332Z,18.23
2019-04-05T06:38:58.803Z,18.37
2019-04-05T06:41:29.127Z,17.90
2019-04-05T06:43:59.683Z,17.73
2019-04-05T06:46:30.056Z,19.92
2019-04-05T06:49:00.512Z,19.20
2019-04-05T06:51:30.830Z,19.42
2019-04-05T06:54:03.378Z,19.17
2019-04-05T06:56:33.618Z,17.82
2019-04-05T06:59:04.354Z,18.55
2019-04-05T07:01:35.770Z,19.98
2019-04-05T07:04:13.057Z,19.02
2019-04-05T07:06:43.512Z,19.73
2019-04-05T07:09:16.599Z,20.23
2019-04-05T07:11:48.151Z,20.72
2019-04-05T07:14:22.653Z,20.27
2019-04-05T07:16:53.853Z,21.05
2019-04-05T07:19:24.132Z,19.10
2019-04-05T07:21:54.512Z,19.27
2019-04-05T07:24:25.013Z,19.48
2019-04-05T07:26:55.391Z,20.50
2019-04-05T07:29:25.610Z,19.80
2019-04-05T07:31:56.025Z,18.57
2019-04-05T07:34:26.416Z,19.10
2019-04-05T07:36:56.858Z,18.67
2019-04-05T07:39:27.446Z,19.62
2019-04-05T07:41:58.915Z,19.23
2019-04-05T07:44:29.417Z,18.40
2019-04-05T07:46:59.819Z,18.87
2019-04-05T07:49:31.069Z,19.60
2019-04-05T07:52:02.600Z,17.57
2019-04-05T07:54:49.123Z,19.12
2019-04-05T07:57:19.779Z,19.62
2019-04-05T07:59:51.173Z,19.23
2019-04-05T08:02:21.831Z,20.15
2019-04-05T08:04:54.608Z,20.43
2019-04-05T08:07:28.678Z,20.48
2019-04-05T08:10:01.431Z,20.55
2019-04-05T08:12:31.754Z,20.60
2019-04-05T08:15:02.215Z,19.37
2019-04-05T08:17:32.612Z,21.77
2019-04-05T08:20:02.987Z,19.57
2019-04-05T08:22:33.329Z,19.95
2019-04-05T08:25:04.070Z,17.37
2019-04-05T08:27:34.546Z,17.67
2019-04-05T08:30:05.181Z,17.62
2019-04-05T08:32:35.474Z,18.12
2019-04-05T08:35:06.380Z,18.25
2019-04-05T08:37:36.730Z,18.07
2019-04-05T08:40:07.159Z,19.73
2019-04-05T08:42:37.489Z,22.27
2019-04-05T08:45:08.094Z,20.32
2019-04-05T08:47:40.831Z,20.50
2019-04-05T08:50:11.525Z,18.60
2019-04-05T08:52:41.825Z,18.70
2019-04-05T08:55:12.322Z,18.07
2019-04-05T08:57:42.686Z,17.32
2019-04-05T09:00:13.731Z,18.00
2019-04-05T09:02:44.149Z,18.32
2019-04-05T09:05:14.615Z,17.95
2019-04-05T09:07:44.966Z,16.77
2019-04-05T09:10:15.608Z,17.07
2019-04-05T09:12:46.033Z,16.95
2019-04-05T09:15:16.466Z,15.85
2019-04-05T09:17:46.836Z,16.82
2019-04-05T09:20:18.156Z,17.67
2019-04-05T09:22:48.525Z,15.70
2019-04-05T09:25:19.858Z,15.58
2019-04-05T09:27:50.251Z,15.58
2019-04-05T09:30:20.610Z,16.17
2019-04-05T09:32:51.170Z,15.15
2019-04-05T09:35:21.651Z,14.95
2019-04-05T09:37:52.038Z,14.43
2019-04-05T09:40:22.575Z,14.87
2019-04-05T09:42:53.061Z,12.98
2019-04-05T09:45:23.852Z,13.35
2019-04-05T09:47:54.430Z,14.28
2019-04-05T09:50:26.069Z,13.78
2019-04-05T09:52:56.571Z,13.15
2019-04-05T09:55:27.283Z,14.68
2019-04-05T09:58:03.758Z,13.65
2019-04-05T10:00:35.720Z,14.50
2019-04-05T10:03:06.281Z,14.55
2019-04-05T10:05:36.950Z,13.93
2019-04-05T10:08:07.422Z,14.75
2019-04-05T10:10:37.971Z,14.07
2019-04-05T10:13:09.981Z,15.68
2019-04-05T10:15:40.717Z,15.28
2019-04-05T10:18:11.196Z,15.85
2019-04-05T10:20:41.724Z,16.15
2019-04-05T10:23:12.083Z,16.02
2019-04-05T10:25:43.997Z,15.68
2019-04-05T10:28:20.499Z,16.40
2019-04-05T10:30:52.125Z,15.70
2019-04-05T10:33:22.697Z,14.23
2019-04-05T10:35:53.382Z,15.55
2019-04-05T10:38:24.213Z,13.98
2019-04-05T10:40:54.834Z,13.22
2019-04-05T10:43:25.201Z,12.93
2019-04-05T10:45:55.515Z,11.78
2019-04-05T10:48:25.839Z,12.18
2019-04-05T10:50:56.233Z,11.83
2019-04-05T10:53:26.591Z,11.50
2019-04-05T10:55:56.867Z,11.35
2019-04-05T10:58:27.450Z,11.50
2019-04-05T11:00:57.857Z,12.65
2019-04-05T11:03:28.263Z,10.35
2019-04-05T11:05:58.849Z,10.95
2019-04-05T11:08:29.247Z,11.38
2019-04-05T11:11:09.625Z,9.60
2019-04-05T11:13:39.904Z,10.25
2019-04-05T11:16:10.384Z,11.12
2019-04-05T11:18:40.793Z,9.65
2019-04-05T11:21:11.416Z,11.05
2019-04-05T11:23:41.760Z,9.60
2019-04-05T11:26:12.228Z,10.15
2019-04-05T11:28:44.202Z,11.33
2019-04-05T11:31:14.678Z,9.78
2019-04-05T11:33:45.157Z,10.53
2019-04-05T11:36:15.610Z,10.88
2019-04-05T11:38:50.051Z,10.48
2019-04-05T11:41:20.638Z,9.33
2019-04-05T11:43:52.869Z,10.23
2019-04-05T11:46:23.231Z,9.90
2019-04-05T11:48:54.971Z,11.22
2019-04-05T11:51:25.528Z,10.45
2019-04-05T11:53:56.057Z,10.98
2019-04-05T11:56:26.920Z,9.60
2019-04-05T11:58:57.635Z,10.40
2019-04-05T12:01:33.841Z,10.20
2019-04-05T12:04:04.441Z,11.08
2019-04-05T12:06:35.414Z,10.80
2019-04-05T12:09:08.263Z,10.98
2019-04-05T12:11:38.782Z,10.75
2019-04-05T12:14:09.340Z,10.43
2019-04-05T12:16:39.703Z,13.98
2019-04-05T12:19:12.370Z,11.73
2019-04-05T12:21:43.917Z,12.93
2019-04-05T12:24:14.529Z,12.73
2019-04-05T12:26:44.970Z,12.60
2019-04-05T12:29:15.610Z,12.25
2019-04-05T12:31:46.663Z,12.68
2019-04-05T12:34:17.250Z,12.50
2019-04-05T12:36:47.842Z,12.00
2019-04-05T12:39:18.369Z,11.63
2019-04-05T12:41:48.941Z,12.55
2019-04-05T12:44:19.405Z,13.62
2019-04-05T12:46:50.035Z,12.53
2019-04-05T12:49:22.011Z,12.13
2019-04-05T12:51:52.830Z,12.15
2019-04-05T12:54:23.180Z,12.15
2019-04-05T12:56:54.276Z,12.75
2019-04-05T12:59:25.526Z,12.50
2019-04-05T13:01:59.446Z,12.88
2019-04-05T13:04:28.824Z,12.93
2019-04-05T13:07:00.642Z,13.85
2019-04-05T13:09:49.201Z,13.03
2019-04-05T13:12:19.618Z,12.85
2019-04-05T13:14:49.987Z,14.65
2019-04-05T13:17:21.755Z,12.80
2019-04-05T13:19:52.221Z,13.53
2019-04-05T13:22:23.627Z,12.93
2019-04-05T13:24:54.178Z,12.58
2019-04-05T13:27:24.840Z,14.47
2019-04-05T13:29:56.297Z,12.45
2019-04-05T13:32:26.901Z,12.03
2019-04-05T13:34:57.455Z,13.35
2019-04-05T13:37:28.514Z,13.93
2019-04-05T13:40:10.445Z,14.33
2019-04-05T13:42:44.185Z,15.00
2019-04-05T13:45:16.127Z,12.75
2019-04-05T13:47:46.739Z,13.48
2019-04-05T13:50:19.399Z,13.60
2019-04-05T13:52:51.720Z,14.43
2019-04-05T13:55:26.143Z,13.25
2019-04-05T13:57:56.559Z,14.07
2019-04-05T14:00:29.597Z,12.65
2019-04-05T14:02:59.880Z,13.85
2019-04-05T14:05:34.145Z,13.25
2019-04-05T14:08:10.409Z,13.25
2019-04-05T14:10:37.508Z,12.80
2019-04-05T14:13:09.911Z,13.62
2019-04-05T14:15:42.383Z,12.75
2019-04-05T14:18:15.265Z,13.08
2019-04-05T14:20:52.901Z,12.25
2019-04-05T14:23:24.171Z,12.80
2019-04-05T14:25:54.587Z,12.82
2019-04-05T14:28:35.995Z,11.83
2019-04-05T14:31:06.474Z,11.65
2019-04-05T14:33:36.950Z,12.18
2019-04-05T14:36:07.372Z,12.43
2019-04-05T14:38:37.910Z,12.28
2019-04-05T14:41:08.470Z,12.03
2019-04-05T14:43:38.949Z,13.10
2019-04-05T14:46:09.602Z,11.88
2019-04-05T14:48:40.060Z,12.70
2019-04-05T14:51:10.827Z,13.48
2019-04-05T14:53:41.655Z,12.78
2019-04-05T14:56:14.452Z,12.18
2019-04-05T14:58:45.103Z,11.40
2019-04-05T15:01:17.485Z,12.33
2019-04-05T15:03:50.699Z,13.00
2019-04-05T15:06:21.087Z,11.30
2019-04-05T15:08:53.687Z,11.68
2019-04-05T15:11:24.303Z,12.10
2019-04-05T15:13:54.828Z,11.30
2019-04-05T15:16:30.140Z,11.83
2019-04-05T15:19:00.603Z,11.08
2019-04-05T15:21:31.072Z,12.05
2019-04-05T15:24:02.782Z,12.00
2019-04-05T15:26:33.290Z,12.80
2019-04-05T15:29:10.316Z,12.60
2019-04-05T15:31:42.412Z,12.50
2019-04-05T15:34:13.742Z,12.05
2019-04-05T15:36:44.232Z,12.68
2019-04-05T15:39:16.182Z,12.13
2019-04-05T15:41:46.435Z,11.68
2019-04-05T15:44:17.053Z,12.70
2019-04-05T15:46:47.527Z,13.00
2019-04-05T15:49:19.426Z,11.88
2019-04-05T15:51:50.453Z,12.43
2019-04-05T15:54:23.924Z,12.63
2019-04-05T15:56:54.310Z,12.65
2019-04-05T15:59:27.346Z,12.33
2019-04-05T16:01:57.885Z,13.32
2019-04-05T16:04:28.568Z,12.70
2019-04-05T16:06:59.177Z,12.15
2019-04-05T16:09:29.797Z,12.10
2019-04-05T16:12:00.178Z,12.20
2019-04-05T16:14:31.213Z,13.10
2019-04-05T16:17:01.700Z,13.70
2019-04-05T16:19:32.250Z,13.10
2019-04-05T16:22:02.772Z,12.75
2019-04-05T16:24:35.553Z,12.55
2019-04-05T16:27:10.537Z,13.25
2019-04-05T16:29:41.272Z,13.62
2019-04-05T16:32:12.215Z,14.47
2019-04-05T16:34:42.885Z,13.58
2019-04-05T16:37:13.368Z,14.60
2019-04-05T16:39:43.920Z,12.40
2019-04-05T16:42:14.553Z,13.98
2019-04-05T16:44:45.249Z,15.63
2019-04-05T16:47:15.783Z,14.47
2019-04-05T16:49:57.119Z,13.50
2019-04-05T16:52:27.693Z,15.38
2019-04-05T16:54:58.125Z,16.75
2019-04-05T16:57:28.746Z,14.98
2019-04-05T16:59:59.385Z,15.38
2019-04-05T17:02:29.751Z,16.05
2019-04-05T17:05:01.114Z,16.25
2019-04-05T17:07:32.055Z,16.42
2019-04-05T17:10:02.559Z,15.80
2019-04-05T17:12:32.971Z,16.65
2019-04-05T17:15:07.616Z,16.40
2019-04-05T17:17:38.351Z,17.67
2019-04-05T17:20:09.834Z,17.60
2019-04-05T17:22:40.322Z,16.60
2019-04-05T17:25:12.265Z,18.23
2019-04-05T17:27:42.881Z,18.17
2019-04-05T17:30:13.615Z,17.12
2019-04-05T17:32:44.279Z,18.87
2019-04-05T17:35:14.921Z,19.27
2019-04-05T17:37:45.466Z,17.55
2019-04-05T17:40:16.376Z,19.07
2019-04-05T17:42:46.877Z,19.85
2019-04-05T17:45:17.641Z,18.35
2019-04-05T17:47:48.350Z,18.60
2019-04-05T17:50:31.257Z,20.60
2019-04-05T17:53:12.495Z,18.50
2019-04-05T17:55:37.129Z,18.75
2019-04-05T17:58:07.928Z,19.23
2019-04-05T18:00:38.585Z,18.80
2019-04-05T18:03:13.702Z,18.95
2019-04-05T18:05:44.527Z,19.90
2019-04-05T18:08:15.090Z,18.98
2019-04-05T18:10:45.721Z,20.05
2019-04-05T18:13:16.218Z,19.27
2019-04-05T18:15:52.699Z,19.73
2019-04-05T18:18:20.553Z,19.12
2019-04-05T18:20:51.878Z,18.30
2019-04-05T18:23:25.294Z,19.12
2019-04-05T18:25:57.559Z,20.92
2019-04-05T18:28:34.553Z,19.02
2019-04-05T18:31:05.473Z,18.77
2019-04-05T18:33:36.234Z,19.07
2019-04-05T18:36:06.766Z,20.68
2019-04-05T18:38:37.676Z,21.07
2019-04-05T18:41:08.344Z,22.05
2019-04-05T18:43:42.370Z,20.92
2019-04-05T18:46:14.379Z,19.27
2019-04-05T18:48:45.237Z,20.77
2019-04-05T18:51:16.558Z,22.73
2019-04-05T18:53:47.012Z,22.87
2019-04-05T18:56:17.798Z,22.48
2019-04-05T18:58:48.307Z,20.30
2019-04-05T19:01:19.124Z,20.17
2019-04-05T19:03:49.579Z,19.95
2019-04-05T19:06:20.307Z,20.50
2019-04-05T19:08:51.722Z,21.00
2019-04-05T19:11:23.283Z,20.05
2019-04-05T19:14:01.004Z,19.00
2019-04-05T19:16:26.235Z,20.48
2019-04-05T19:18:56.788Z,21.50
2019-04-05T19:21:27.308Z,20.52
2019-04-05T19:23:58.887Z,19.50
2019-04-05T19:26:31.300Z,21.27
2019-04-05T19:29:01.773Z,20.75
2019-04-05T19:49:18.985Z,19.40
2019-04-05T19:51:49.503Z,17.55
2019-04-05T19:54:20.007Z,20.75
2019-04-05T19:56:50.632Z,19.90
2019-04-05T19:59:21.018Z,20.23
2019-04-05T20:01:53.006Z,19.90
2019-04-05T20:04:23.365Z,20.70
2019-04-05T20:06:58.670Z,18.80
2019-04-05T20:09:27.724Z,19.50
2019-04-05T20:11:58.091Z,20.52
2019-04-05T20:14:29.011Z,21.93
2019-04-05T20:16:59.595Z,21.23
2019-04-05T20:19:29.932Z,20.62
2019-04-05T20:22:01.733Z,19.80
2019-04-05T20:24:32.200Z,20.40
2019-04-05T20:27:03.234Z,20.12
2019-04-05T20:29:33.506Z,20.00
2019-04-05T20:32:03.917Z,19.23
2019-04-05T20:34:34.392Z,20.90
2019-04-05T20:37:05.255Z,20.48
2019-04-05T20:39:35.976Z,22.05
2019-04-05T20:42:06.656Z,20.88
2019-04-05T20:44:37.015Z,20.23
2019-04-05T20:47:07.440Z,22.67
2019-04-05T20:49:37.786Z,22.62
2019-04-05T20:52:08.180Z,22.35
2019-04-05T20:54:39.021Z,22.20
2019-04-05T20:57:11.572Z,20.55
2019-04-05T20:59:42.133Z,20.68
2019-04-05T21:02:12.584Z,20.97
2019-04-05T21:04:47.622Z,22.10
2019-04-05T21:07:18.244Z,21.65
2019-04-05T21:09:48.511Z,20.62
2019-04-05T21:12:22.450Z,23.15
2019-04-05T21:14:53.566Z,20.30
2019-04-05T21:17:24.026Z,23.25
2019-04-05T21:19:56.221Z,35.88
2019-04-05T21:22:26.938Z,24.15
2019-04-05T21:24:57.372Z,21.80
2019-04-05T21:27:27.968Z,21.57
2019-04-05T21:29:58.772Z,20.92
2019-04-05T21:32:29.265Z,26.65
2019-04-05T21:34:59.638Z,23.83
2019-04-05T21:37:31.645Z,22.98
2019-04-05T21:40:02.104Z,21.00
2019-04-05T21:42:33.965Z,22.62
2019-04-05T21:45:04.675Z,21.60
2019-04-05T21:47:35.218Z,22.13
2019-04-05T21:50:06.106Z,22.55
2019-04-05T21:52:36.774Z,21.30
2019-04-05T21:55:07.476Z,26.65
2019-04-05T21:57:37.947Z,25.97
2019-04-05T22:00:15.286Z,21.95
2019-04-05T22:02:47.698Z,21.40
2019-04-05T22:05:18.629Z,21.05
2019-04-05T22:07:51.445Z,21.97
2019-04-05T22:10:21.734Z,21.17
2019-04-05T22:12:52.301Z,21.90
2019-04-05T22:15:23.166Z,20.57
2019-04-05T22:17:53.609Z,22.13
2019-04-05T22:20:25.555Z,23.02
2019-04-05T22:22:55.905Z,22.65
2019-04-05T22:25:26.871Z,23.52
2019-04-05T22:27:58.792Z,22.62
2019-04-05T22:30:30.694Z,21.80
2019-04-05T22:33:01.375Z,21.90
2019-04-05T22:35:31.823Z,22.95
2019-04-05T22:38:02.263Z,22.25
2019-04-05T22:40:33.011Z,23.60
2019-04-05T22:43:03.582Z,22.50
2019-04-05T22:45:34.095Z,24.00
2019-04-05T22:48:05.525Z,24.37
2019-04-05T22:50:36.061Z,24.90
2019-04-05T22:53:06.765Z,24.45
2019-04-05T22:55:37.200Z,25.00
2019-04-05T22:58:07.963Z,24.98
2019-04-05T23:00:38.265Z,24.40
2019-04-05T23:03:10.356Z,26.20
2019-04-05T23:05:40.739Z,24.75
2019-04-05T23:08:11.119Z,23.15
2019-04-05T23:10:41.471Z,23.47
2019-04-05T23:13:11.857Z,23.52
2019-04-05T23:15:42.428Z,22.27
2019-04-05T23:18:12.863Z,22.95
2019-04-05T23:20:43.200Z,25.82
2019-04-05T23:23:13.739Z,24.12
2019-04-05T23:25:44.071Z,24.10
2019-04-05T23:28:14.487Z,23.70
2019-04-05T23:30:45.100Z,23.00
2019-04-05T23:33:16.287Z,24.37
2019-04-05T23:35:46.516Z,23.75
2019-04-05T23:38:17.086Z,24.18
2019-04-05T23:40:47.385Z,23.18
2019-04-05T23:43:18.281Z,23.50
2019-04-05T23:45:48.579Z,23.32
2019-04-05T23:48:19.034Z,23.80
2019-04-05T23:50:49.453Z,24.40
2019-04-05T23:53:20.148Z,25.15
2019-04-05T23:55:50.424Z,24.82
2019-04-05T23:58:20.910Z,24.75
